createdAt,value
2022-10-05T00:02:19.917Z,71.37
2022-10-05T00:04:53.350Z,71.47
2022-10-05T00:07:21.166Z,70.88
2022-10-05T00:09:57.682Z,70.98
2022-10-05T00:12:25.650Z,71.11
2022-10-05T00:14:55.458Z,70.78
2022-10-05T00:17:27.677Z,70.81
2022-10-05T00:19:57.661Z,70.47
2022-10-05T00:22:30.057Z,70.78
2022-10-05T00:25:01.416Z,70.95
2022-10-05T00:27:31.945Z,71.27
2022-10-05T00:30:00.504Z,71.11
2022-10-05T00:32:27.901Z,71.06
2022-10-05T00:34:55.380Z,71.08
2022-10-05T00:37:22.761Z,71.00
2022-10-05T00:39:50.162Z,71.18
2022-10-05T00:42:33.429Z,70.78
2022-10-05T00:45:07.665Z,71.19
2022-10-05T00:47:48.938Z,71.72
2022-10-05T00:50:17.945Z,71.72
2022-10-05T00:53:03.471Z,70.97
2022-10-05T00:55:45.671Z,71.12
2022-10-05T00:58:19.953Z,71.00
2022-10-05T01:00:53.282Z,71.12
2022-10-05T01:03:29.905Z,71.66
2022-10-05T01:06:05.030Z,71.46
2022-10-05T01:08:57.051Z,71.64
2022-10-05T01:11:42.685Z,71.58
2022-10-05T01:14:22.823Z,71.46
2022-10-05T01:17:03.692Z,71.47
2022-10-05T01:19:58.205Z,71.82
2022-10-05T01:22:55.992Z,72.09
2022-10-05T01:25:32.474Z,71.90
2022-10-05T01:28:03.933Z,71.60
2022-10-05T01:30:37.836Z,71.47
2022-10-05T01:33:19.121Z,71.06
2022-10-05T01:36:04.162Z,70.89
2022-10-05T01:38:39.184Z,70.98
2022-10-05T01:41:35.790Z,70.75
2022-10-05T01:44:14.702Z,71.15
2022-10-05T01:46:52.525Z,71.18
2022-10-05T01:49:43.707Z,71.60
2022-10-05T01:52:27.920Z,71.12
2022-10-05T01:55:19.703Z,70.95
2022-10-05T01:57:52.797Z,71.09
2022-10-05T02:00:20.145Z,71.02
2022-10-05T02:03:01.593Z,70.95
2022-10-05T02:05:48.497Z,71.13
2022-10-05T02:08:29.972Z,71.01
2022-10-05T02:11:12.065Z,71.12
2022-10-05T02:13:57.452Z,70.70
2022-10-05T02:16:27.472Z,70.65
2022-10-05T02:18:58.841Z,70.96
2022-10-05T02:21:30.242Z,70.99
2022-10-05T02:23:57.955Z,70.98
2022-10-05T02:26:25.389Z,71.37
2022-10-05T02:28:56.825Z,70.81
2022-10-05T02:31:27.899Z,71.42
2022-10-05T02:34:23.191Z,70.76
2022-10-05T02:36:57.445Z,70.88
2022-10-05T02:39:50.086Z,71.13
2022-10-05T02:42:26.866Z,71.05
2022-10-05T02:44:54.437Z,71.59
2022-10-05T02:47:37.335Z,71.16
2022-10-05T02:50:19.960Z,71.06
2022-10-05T02:53:00.492Z,71.17
2022-10-05T02:55:51.926Z,71.26
2022-10-05T02:58:21.102Z,71.17
2022-10-05T03:01:27.365Z,70.94
2022-10-05T03:04:12.912Z,70.45
2022-10-05T03:06:54.652Z,70.89
2022-10-05T03:09:22.125Z,70.80
2022-10-05T03:12:12.726Z,70.85
2022-10-05T03:14:58.363Z,70.51
2022-10-05T03:17:29.033Z,70.67
2022-10-05T03:20:21.670Z,70.81
2022-10-05T03:23:11.868Z,70.59
2022-10-05T03:26:08.021Z,70.89
2022-10-05T03:28:41.006Z,70.47
2022-10-05T03:31:25.887Z,70.58
2022-10-05T03:34:00.651Z,70.11
2022-10-05T03:36:52.518Z,70.58
2022-10-05T03:39:26.244Z,70.74
2022-10-05T03:41:57.683Z,71.22
2022-10-05T03:44:45.907Z,70.91
2022-10-05T03:47:34.666Z,70.42
2022-10-05T03:50:17.545Z,70.61
2022-10-05T03:52:50.863Z,70.40
2022-10-05T03:55:44.046Z,70.59
2022-10-05T03:58:24.571Z,70.59
2022-10-05T04:00:54.109Z,70.49
2022-10-05T04:03:23.616Z,71.30
2022-10-05T04:05:56.726Z,71.23
2022-10-05T04:08:49.435Z,71.33
2022-10-05T04:11:37.032Z,70.59
2022-10-05T04:14:10.391Z,70.55
2022-10-05T04:16:44.018Z,70.63
2022-10-05T04:19:16.819Z,71.15
2022-10-05T04:21:53.268Z,70.94
2022-10-05T04:24:37.506Z,70.81
2022-10-05T04:27:12.180Z,70.59
2022-10-05T04:29:51.999Z,70.49
2022-10-05T04:32:28.085Z,70.30
2022-10-05T04:35:07.506Z,70.74
2022-10-05T04:37:50.135Z,70.75
2022-10-05T04:40:39.594Z,70.79
2022-10-05T04:43:36.589Z,70.62
2022-10-05T04:46:17.797Z,70.26
2022-10-05T04:48:56.372Z,70.62
2022-10-05T04:51:51.280Z,70.62
2022-10-05T04:54:24.954Z,70.40
2022-10-05T04:56:59.523Z,70.74
2022-10-05T04:59:46.252Z,70.76
2022-10-05T05:02:22.877Z,70.87
2022-10-05T05:05:27.097Z,70.88
2022-10-05T05:08:02.262Z,70.67
2022-10-05T05:10:51.498Z,71.07
2022-10-05T05:13:44.909Z,70.93
2022-10-05T05:16:20.150Z,70.84
2022-10-05T05:18:59.662Z,70.73
2022-10-05T05:21:33.878Z,70.85
2022-10-05T05:24:24.078Z,71.10
2022-10-05T05:26:58.564Z,70.78
2022-10-05T05:29:32.112Z,70.75
2022-10-05T05:32:13.951Z,70.70
2022-10-05T05:35:10.910Z,71.03
2022-10-05T05:38:13.696Z,71.05
2022-10-05T05:41:02.991Z,71.17
2022-10-05T05:43:33.595Z,70.61
2022-10-05T05:46:01.551Z,70.61
2022-10-05T05:48:45.576Z,70.53
2022-10-05T05:51:23.450Z,70.33
2022-10-05T05:53:54.408Z,70.73
2022-10-05T05:56:26.934Z,70.33
2022-10-05T05:59:01.202Z,70.81
2022-10-05T06:01:44.652Z,70.46
2022-10-05T06:04:17.503Z,70.36
2022-10-05T06:06:50.286Z,70.54
2022-10-05T06:09:24.974Z,70.52
2022-10-05T06:12:07.597Z,70.36
2022-10-05T06:14:39.809Z,70.37
2022-10-05T06:17:29.010Z,70.50
2022-10-05T06:20:02.535Z,70.42
2022-10-05T06:22:35.212Z,70.56
2022-10-05T06:25:12.185Z,70.42
2022-10-05T06:28:11.790Z,70.77
2022-10-05T06:31:04.049Z,70.70
2022-10-05T06:33:54.637Z,70.60
2022-10-05T06:36:49.885Z,70.54
2022-10-05T06:39:32.056Z,70.73
2022-10-05T06:42:32.169Z,70.82
2022-10-05T06:45:29.789Z,70.99
2022-10-05T06:48:31.502Z,70.93
2022-10-05T06:51:24.603Z,70.68
2022-10-05T06:54:34.311Z,70.68
2022-10-05T06:57:15.636Z,70.67
2022-10-05T07:00:05.610Z,72.00
2022-10-05T07:02:56.223Z,71.20
2022-10-05T07:05:29.779Z,71.00
2022-10-05T07:08:06.210Z,70.83
2022-10-05T07:10:52.474Z,70.91
2022-10-05T07:13:22.977Z,71.50
2022-10-05T07:15:56.631Z,71.18
2022-10-05T07:19:00.625Z,71.93
2022-10-05T07:21:46.662Z,72.01
2022-10-05T07:24:20.443Z,71.50
2022-10-05T07:26:51.421Z,71.29
2022-10-05T07:29:23.342Z,71.82
2022-10-05T07:32:00.196Z,72.25
2022-10-05T07:34:49.835Z,71.92
2022-10-05T07:37:39.093Z,71.97
2022-10-05T07:40:19.138Z,71.89
2022-10-05T07:43:00.983Z,71.80
2022-10-05T07:45:41.095Z,71.49
2022-10-05T07:48:19.310Z,71.68
2022-10-05T07:51:06.767Z,71.64
2022-10-05T07:53:42.326Z,71.09
2022-10-05T07:56:16.064Z,70.91
2022-10-05T07:58:44.611Z,71.12
2022-10-05T08:01:32.493Z,71.42
2022-10-05T08:04:23.142Z,71.34
2022-10-05T08:06:54.192Z,71.41
2022-10-05T08:09:36.783Z,71.36
2022-10-05T08:12:21.838Z,71.35
2022-10-05T08:15:10.675Z,71.34
2022-10-05T08:17:47.133Z,71.38
2022-10-05T08:20:40.516Z,71.12
2022-10-05T08:23:48.377Z,71.51
2022-10-05T08:26:24.965Z,71.65
2022-10-05T08:29:03.389Z,71.74
2022-10-05T08:31:38.017Z,71.24
2022-10-05T08:34:24.072Z,70.87
2022-10-05T08:37:18.124Z,71.18
2022-10-05T08:40:00.968Z,70.68
2022-10-05T08:42:28.288Z,70.29
2022-10-05T08:45:02.795Z,70.48
2022-10-05T08:48:04.889Z,70.95
2022-10-05T08:50:56.925Z,70.81
2022-10-05T08:53:52.214Z,71.21
2022-10-05T08:56:28.780Z,70.79
2022-10-05T08:59:40.762Z,70.69
2022-10-05T09:02:41.992Z,70.86
2022-10-05T09:05:38.694Z,70.50
2022-10-05T09:08:15.247Z,70.61
2022-10-05T09:10:55.486Z,70.30
2022-10-05T09:13:47.182Z,70.08
2022-10-05T09:16:44.627Z,70.42
2022-10-05T09:19:40.744Z,70.04
2022-10-05T09:22:35.410Z,70.18
2022-10-05T09:25:21.217Z,70.55
2022-10-05T09:28:24.410Z,70.10
2022-10-05T09:31:04.543Z,70.08
2022-10-05T09:33:54.687Z,69.91
2022-10-05T09:36:51.630Z,69.58
2022-10-05T09:39:27.578Z,69.78
2022-10-05T09:42:13.604Z,69.97
2022-10-05T09:44:58.986Z,70.18
2022-10-05T09:47:26.329Z,70.56
2022-10-05T09:50:30.529Z,70.75
2022-10-05T09:53:24.503Z,69.67
2022-10-05T09:56:21.990Z,69.80
2022-10-05T09:59:06.515Z,69.98
2022-10-05T10:01:53.930Z,70.28
2022-10-05T10:04:26.616Z,70.40
2022-10-05T10:07:21.142Z,70.45
2022-10-05T10:10:36.082Z,70.46
2022-10-05T10:13:45.712Z,70.07
2022-10-05T10:16:31.342Z,70.06
2022-10-05T10:19:20.456Z,70.38
2022-10-05T10:22:17.295Z,70.21
2022-10-05T10:25:11.309Z,70.18
2022-10-05T10:28:07.062Z,70.02
2022-10-05T10:31:09.823Z,69.93
2022-10-05T10:34:31.160Z,69.80
2022-10-05T10:37:30.908Z,69.82
2022-10-05T10:40:40.319Z,69.79
2022-10-05T10:43:10.293Z,69.99
2022-10-05T10:45:56.653Z,69.90
2022-10-05T10:48:43.586Z,70.02
2022-10-05T10:51:19.710Z,70.19
2022-10-05T10:54:02.779Z,70.21
2022-10-05T10:56:42.184Z,70.12
2022-10-05T10:59:25.537Z,70.19
2022-10-05T11:02:17.350Z,70.14
2022-10-05T11:05:01.681Z,70.46
2022-10-05T11:08:15.173Z,70.33
2022-10-05T11:11:19.431Z,70.15
2022-10-05T11:14:02.722Z,70.11
2022-10-05T11:16:54.818Z,69.84
2022-10-05T11:20:03.481Z,70.20
2022-10-05T11:23:09.253Z,70.47
2022-10-05T11:25:54.869Z,70.29
2022-10-05T11:28:35.670Z,70.35
2022-10-05T11:31:31.224Z,70.45
2022-10-05T11:34:46.373Z,70.45
2022-10-05T11:37:51.169Z,70.29
2022-10-05T11:40:43.238Z,70.33
2022-10-05T11:43:15.365Z,70.12
2022-10-05T11:45:55.536Z,70.40
2022-10-05T11:48:37.683Z,70.66
2022-10-05T11:51:28.875Z,70.57
2022-10-05T11:53:57.591Z,70.72
2022-10-05T11:56:35.919Z,70.53
2022-10-05T11:59:15.535Z,70.59
2022-10-05T12:01:52.548Z,70.69
2022-10-05T12:04:41.305Z,70.75
2022-10-05T12:07:16.717Z,70.64
2022-10-05T12:10:21.183Z,70.71
2022-10-05T12:12:55.074Z,70.69
2022-10-05T12:15:45.127Z,70.54
2022-10-05T12:18:46.733Z,70.56
2022-10-05T12:21:45.333Z,70.48
2022-10-05T12:24:31.293Z,70.49
2022-10-05T12:27:05.363Z,70.52
2022-10-05T12:29:38.920Z,70.31
2022-10-05T12:32:17.132Z,70.44
2022-10-05T12:34:48.678Z,70.40
2022-10-05T12:37:32.164Z,70.53
2022-10-05T12:40:14.590Z,70.44
2022-10-05T12:42:50.331Z,70.64
2022-10-05T12:45:43.616Z,70.69
2022-10-05T12:48:33.819Z,70.46
2022-10-05T12:51:06.939Z,70.68
2022-10-05T12:53:38.713Z,70.14
2022-10-05T12:56:11.809Z,70.45
2022-10-05T12:58:52.834Z,70.42
2022-10-05T13:01:26.112Z,70.44
2022-10-05T13:04:10.049Z,70.62
2022-10-05T13:07:12.610Z,70.51
2022-10-05T13:09:47.671Z,70.71
2022-10-05T13:12:23.696Z,70.78
2022-10-05T13:15:19.346Z,70.73
2022-10-05T13:18:33.206Z,70.41
2022-10-05T13:21:04.485Z,70.63
2022-10-05T13:23:35.073Z,70.61
2022-10-05T13:26:09.009Z,70.81
2022-10-05T13:28:48.355Z,70.58
2022-10-05T13:31:23.142Z,70.65
2022-10-05T13:34:00.096Z,70.71
2022-10-05T13:36:36.043Z,70.74
2022-10-05T13:39:15.949Z,70.79
2022-10-05T13:42:00.267Z,70.65
2022-10-05T13:44:31.182Z,70.61
2022-10-05T13:47:22.037Z,70.62
2022-10-05T13:50:18.735Z,70.69
2022-10-05T13:53:04.765Z,70.51
2022-10-05T13:56:06.801Z,70.56
2022-10-05T13:59:21.540Z,70.69
2022-10-05T14:02:07.594Z,70.26
2022-10-05T14:04:51.860Z,70.58
2022-10-05T14:07:34.923Z,70.73
2022-10-05T14:10:03.847Z,70.88
2022-10-05T14:12:38.629Z,71.02
2022-10-05T14:15:32.452Z,71.03
2022-10-05T14:17:59.877Z,70.72
2022-10-05T14:20:31.704Z,70.80
2022-10-05T14:23:06.158Z,70.77
2022-10-05T14:25:34.357Z,70.96
2022-10-05T14:28:04.172Z,71.00
2022-10-05T14:30:32.156Z,70.97
2022-10-05T14:33:05.400Z,71.10
2022-10-05T14:35:54.814Z,70.91
2022-10-05T14:38:29.745Z,71.14
2022-10-05T14:41:27.369Z,71.02
2022-10-05T14:44:02.111Z,70.86
2022-10-05T14:46:32.672Z,70.80
2022-10-05T14:49:22.876Z,70.96
2022-10-05T14:51:50.479Z,70.79
2022-10-05T14:54:34.625Z,70.80
2022-10-05T14:57:13.678Z,70.93
2022-10-05T14:59:53.822Z,70.66
2022-10-05T15:02:48.001Z,70.84
2022-10-05T15:05:39.711Z,70.54
2022-10-05T15:08:37.925Z,70.62
2022-10-05T15:11:07.459Z,70.79
2022-10-05T15:13:38.484Z,71.00
2022-10-05T15:16:11.596Z,70.61
2022-10-05T15:18:48.824Z,70.79
2022-10-05T15:21:47.508Z,70.82
2022-10-05T15:24:20.355Z,71.02
2022-10-05T15:26:52.866Z,70.84
2022-10-05T15:29:52.411Z,70.67
2022-10-05T15:32:41.678Z,70.91
2022-10-05T15:36:06.373Z,70.85
2022-10-05T15:38:42.378Z,70.67
2022-10-05T15:41:19.563Z,70.78
2022-10-05T15:43:58.536Z,70.91
2022-10-05T15:46:34.247Z,70.76
2022-10-05T15:49:22.990Z,70.63
2022-10-05T15:52:19.760Z,70.56
2022-10-05T15:55:13.469Z,70.73
2022-10-05T15:58:19.574Z,70.70
2022-10-05T16:00:58.863Z,70.64
2022-10-05T16:03:38.282Z,70.67
2022-10-05T16:06:43.439Z,70.95
2022-10-05T16:09:20.899Z,71.02
2022-10-05T16:11:54.199Z,70.80
2022-10-05T16:14:43.481Z,70.93
2022-10-05T16:17:10.832Z,70.82
2022-10-05T16:19:50.035Z,70.87
2022-10-05T16:22:43.412Z,71.16
2022-10-05T16:25:16.450Z,70.64
2022-10-05T16:28:05.259Z,70.60
2022-10-05T16:31:06.757Z,70.68
2022-10-05T16:34:19.221Z,70.61
2022-10-05T16:36:59.142Z,70.92
2022-10-05T16:39:56.524Z,71.01
2022-10-05T16:42:35.829Z,71.00
2022-10-05T16:45:14.825Z,71.20
2022-10-05T16:47:57.598Z,71.13
2022-10-05T16:50:39.722Z,70.85
2022-10-05T16:53:10.115Z,70.92
2022-10-05T16:55:40.762Z,69.92
2022-10-05T16:58:18.360Z,70.32
2022-10-05T17:00:52.040Z,70.74
2022-10-05T17:03:32.515Z,70.83
2022-10-05T17:06:16.705Z,70.77
2022-10-05T17:09:08.136Z,71.21
2022-10-05T17:11:51.948Z,71.28
2022-10-05T17:14:28.189Z,71.05
2022-10-05T17:17:16.864Z,71.03
2022-10-05T17:19:50.250Z,70.13
2022-10-05T17:22:31.444Z,70.30
2022-10-05T17:25:24.217Z,70.69
2022-10-05T17:28:11.041Z,69.99
2022-10-05T17:30:53.929Z,70.65
2022-10-05T17:33:29.730Z,70.12
2022-10-05T17:36:03.277Z,70.45
2022-10-05T17:38:30.545Z,70.88
2022-10-05T17:41:01.037Z,70.58
2022-10-05T17:43:30.920Z,70.67
2022-10-05T17:46:02.957Z,69.76
2022-10-05T17:48:48.622Z,70.04
2022-10-05T17:51:35.557Z,69.98
2022-10-05T17:54:48.270Z,70.18
2022-10-05T17:57:21.719Z,69.91
2022-10-05T17:59:58.166Z,70.25
2022-10-05T18:02:38.538Z,70.43
2022-10-05T18:05:12.611Z,70.41
2022-10-05T18:07:40.682Z,70.48
2022-10-05T18:10:16.941Z,70.18
2022-10-05T18:12:59.215Z,70.82
2022-10-05T18:15:26.480Z,70.71
2022-10-05T18:17:58.701Z,70.41
2022-10-05T18:20:32.988Z,70.55
2022-10-05T18:23:03.251Z,70.33
2022-10-05T18:25:48.669Z,70.55
2022-10-05T18:28:16.094Z,70.40
2022-10-05T18:30:59.346Z,70.85
2022-10-05T18:33:57.333Z,70.83
2022-10-05T18:36:37.732Z,70.79
2022-10-05T18:39:23.545Z,70.74
2022-10-05T18:42:32.957Z,70.65
2022-10-05T18:45:23.304Z,70.77
2022-10-05T18:48:24.887Z,70.25
2022-10-05T18:51:13.496Z,71.43
2022-10-05T18:53:58.956Z,71.33
2022-10-05T18:56:31.316Z,71.00
2022-10-05T18:59:07.807Z,70.74
2022-10-05T19:01:50.753Z,70.41
2022-10-05T19:04:33.227Z,70.72
2022-10-05T19:07:04.800Z,71.06
2022-10-05T19:09:53.296Z,71.08
2022-10-05T19:12:32.416Z,70.67
2022-10-05T19:15:17.135Z,70.59
2022-10-05T19:17:58.552Z,70.63
2022-10-05T19:20:30.620Z,70.74
2022-10-05T19:23:21.066Z,70.70
2022-10-05T19:26:26.200Z,70.74
2022-10-05T19:29:12.052Z,70.85
2022-10-05T19:31:48.685Z,70.45
2022-10-05T19:34:27.224Z,70.34
2022-10-05T19:37:14.764Z,70.45
2022-10-05T19:39:48.436Z,70.36
2022-10-05T19:42:45.019Z,70.55
2022-10-05T19:45:24.548Z,70.46
2022-10-05T19:48:15.051Z,70.51
2022-10-05T19:50:56.023Z,70.48
2022-10-05T19:53:37.540Z,70.47
2022-10-05T19:56:32.845Z,70.50
2022-10-05T19:59:13.126Z,70.17
2022-10-05T20:01:40.698Z,70.42
2022-10-05T20:04:10.099Z,70.20
2022-10-05T20:06:39.983Z,70.56
2022-10-05T20:09:20.718Z,70.49
2022-10-05T20:11:52.239Z,70.49
2022-10-05T20:14:30.177Z,70.41
2022-10-05T20:17:50.187Z,70.28
2022-10-05T20:20:30.819Z,70.53
2022-10-05T20:23:27.930Z,70.49
2022-10-05T20:26:14.096Z,70.42
2022-10-05T20:28:41.487Z,70.29
2022-10-05T20:31:08.971Z,70.61
2022-10-05T20:33:37.056Z,70.42
2022-10-05T20:36:04.634Z,70.33
2022-10-05T20:38:40.091Z,70.05
2022-10-05T20:41:08.470Z,70.15
2022-10-05T20:43:39.694Z,70.04
2022-10-05T20:46:07.638Z,70.28
2022-10-05T20:48:38.594Z,70.36
2022-10-05T20:51:06.121Z,70.13
2022-10-05T20:53:33.682Z,70.02
2022-10-05T20:56:02.510Z,70.03
2022-10-05T20:58:30.541Z,70.03
2022-10-05T21:01:18.362Z,70.25
2022-10-05T21:03:46.450Z,69.96
2022-10-05T21:06:13.818Z,69.92
2022-10-05T21:08:41.212Z,69.95
2022-10-05T21:11:11.578Z,70.25
2022-10-05T21:13:44.618Z,70.00
2022-10-05T21:16:17.390Z,69.95
2022-10-05T21:18:48.680Z,70.12
2022-10-05T21:21:17.172Z,69.99
2022-10-05T21:23:45.328Z,69.84
2022-10-05T21:26:12.856Z,69.82
2022-10-05T21:28:40.453Z,69.95
2022-10-05T21:31:08.308Z,70.00
2022-10-05T21:33:35.858Z,70.09
2022-10-05T21:36:03.425Z,70.10
2022-10-05T21:38:30.997Z,69.91
2022-10-05T21:40:58.604Z,69.89
2022-10-05T21:43:26.436Z,69.96
2022-10-05T21:45:54.521Z,70.00
2022-10-05T21:48:21.929Z,69.86
2022-10-05T21:50:49.314Z,70.09
2022-10-05T21:53:17.227Z,70.00
2022-10-05T21:55:45.575Z,69.82
2022-10-05T21:58:13.014Z,69.81
2022-10-05T22:00:41.156Z,70.01
2022-10-05T22:03:08.901Z,69.82
2022-10-05T22:05:36.627Z,69.78
2022-10-05T22:08:04.527Z,69.61
2022-10-05T22:10:32.585Z,69.73
2022-10-05T22:13:01.270Z,69.80
2022-10-05T22:15:31.388Z,69.89
2022-10-05T22:17:59.694Z,69.62
2022-10-05T22:20:27.139Z,69.43
2022-10-05T22:22:54.589Z,69.40
2022-10-05T22:25:22.022Z,69.65
2022-10-05T22:27:49.737Z,69.66
2022-10-05T22:30:17.367Z,69.63
2022-10-05T22:32:44.767Z,69.83
2022-10-05T22:35:12.152Z,69.36
2022-10-05T22:37:39.557Z,69.23
2022-10-05T22:40:07.663Z,69.40
2022-10-05T22:42:35.061Z,69.31
2022-10-05T22:45:02.511Z,69.36
2022-10-05T22:47:29.912Z,69.38
2022-10-05T22:49:57.309Z,69.32
2022-10-05T22:52:24.690Z,69.50
2022-10-05T22:54:52.079Z,69.53
2022-10-05T22:57:19.464Z,69.38
2022-10-05T22:59:49.412Z,69.28
2022-10-05T23:02:18.642Z,69.22
2022-10-05T23:04:46.613Z,69.26
2022-10-05T23:07:14.012Z,69.12
2022-10-05T23:09:41.413Z,69.23
2022-10-05T23:12:08.825Z,69.29
2022-10-05T23:14:36.287Z,69.21
2022-10-05T23:17:03.689Z,69.20
2022-10-05T23:19:31.143Z,68.94
2022-10-05T23:21:58.889Z,69.23
2022-10-05T23:24:28.934Z,69.18
2022-10-05T23:26:56.397Z,69.51
2022-10-05T23:29:23.819Z,69.44
2022-10-05T23:31:51.164Z,69.35
2022-10-05T23:34:18.533Z,69.07
2022-10-05T23:36:49.032Z,68.99
2022-10-05T23:39:16.511Z,68.97
2022-10-05T23:41:44.458Z,69.17
2022-10-05T23:44:11.870Z,68.96
2022-10-05T23:46:39.265Z,68.95
2022-10-05T23:49:06.997Z,69.02
2022-10-05T23:51:34.425Z,68.85
2022-10-05T23:54:01.874Z,68.88
2022-10-05T23:56:29.496Z,69.19
2022-10-05T23:58:56.875Z,68.81
